Time;durP1;ratioP1;P1;durP2;ratioP2;P2;SDS_P1;SDS_P2;PMS_P1;PMS_P2;Temp;Humidity;BMP_temperature;BMP_pressure;BME280_temperature;BME280_humidity;BME280_pressure;Samples;Min_cycle;Max_cycle;Signal;HPM_P1;HPM_P2
2022/08/14 00:00:47;;;;;;;42.63;18.75;;;;;;;18.51;78.65;93427.19;5063088;28;20043;-85
2022/08/14 00:03:25;;;;;;;38.05;20.42;;;;;;;18.52;78.51;93434.91;5062765;28;20104;-85
2022/08/14 00:05:52;;;;;;;33.03;18.95;;;;;;;18.47;78.41;93423.69;5062645;28;20043;-85
2022/08/14 00:08:17;;;;;;;34.78;21.70;;;;;;;18.44;78.57;93422.53;5063244;28;20200;-83
2022/08/14 00:10:43;;;;;;;36.60;19.45;;;;;;;18.38;77.56;93424.78;5062699;28;20055;-83
2022/08/14 00:13:10;;;;;;;31.98;19.52;;;;;;;18.34;78.07;93421.28;5062598;28;20048;-83
2022/08/14 00:15:39;;;;;;;31.23;19.48;;;;;;;18.31;78.24;93421.25;5062424;28;20037;-83
2022/08/14 00:18:07;;;;;;;41.45;20.17;;;;;;;18.30;78.29;93414.28;5062642;28;20075;-83
2022/08/14 00:20:35;;;;;;;34.38;19.73;;;;;;;18.32;78.53;93411.97;5062918;28;20028;-83
2022/08/14 00:23:02;;;;;;;37.70;19.58;;;;;;;18.33;78.73;93413.53;5062688;28;20021;-83
2022/08/14 00:25:28;;;;;;;29.95;18.70;;;;;;;18.34;78.41;93410.47;5062483;28;20090;-83
2022/08/14 00:27:54;;;;;;;36.47;20.05;;;;;;;18.37;77.99;93419.75;5063024;28;20307;-83
2022/08/14 00:30:20;;;;;;;31.73;19.60;;;;;;;18.38;78.21;93410.53;5062959;28;20044;-83
2022/08/14 00:32:46;;;;;;;35.33;19.88;;;;;;;18.39;78.18;93412.81;5062893;28;20311;-81
2022/08/14 00:35:12;;;;;;;34.05;20.10;;;;;;;18.38;78.04;93407.81;5062482;28;20024;-81
2022/08/14 00:37:40;;;;;;;36.00;20.40;;;;;;;18.35;78.32;93411.25;5062841;28;20192;-80
2022/08/14 00:40:07;;;;;;;38.92;19.95;;;;;;;18.31;78.07;93405.81;5061807;28;20066;-80
2022/08/14 00:42:33;;;;;;;23.77;16.15;;;;;;;18.29;77.59;93410.03;5066281;28;20031;-81
2022/08/14 00:44:58;;;;;;;27.58;18.15;;;;;;;18.25;77.48;93407.31;5066421;28;20044;-81
2022/08/14 00:47:24;;;;;;;29.85;16.00;;;;;;;18.25;78.02;93410.78;5066294;28;20024;-80
2022/08/14 00:49:52;;;;;;;36.05;16.50;;;;;;;18.31;78.09;93410.44;5066248;28;20017;-80
2022/08/14 00:52:19;;;;;;;24.88;15.68;;;;;;;18.30;78.06;93408.88;5066251;28;20091;-80
2022/08/14 00:54:51;;;;;;;30.92;17.63;;;;;;;18.29;78.10;93412.75;5066135;28;20337;-80
2022/08/14 00:57:19;;;;;;;29.75;17.08;;;;;;;18.23;77.91;93404.97;5066603;28;20042;-80
2022/08/14 00:59:44;;;;;;;32.75;17.23;;;;;;;18.22;77.78;93399.97;5065992;28;20020;-81
2022/08/14 01:02:13;;;;;;;32.03;18.17;;;;;;;18.19;78.18;93393.38;5066363;28;20100;-81
2022/08/14 01:04:38;;;;;;;39.90;22.13;;;;;;;18.14;77.46;93387.56;5065848;28;20017;-81
2022/08/14 01:07:06;;;;;;;27.83;17.17;;;;;;;18.07;77.61;93396.34;5064751;28;20013;-81
2022/08/14 01:09:32;;;;;;;34.83;18.50;;;;;;;18.01;78.07;93387.06;5066095;28;20013;-81
2022/08/14 01:11:57;;;;;;;38.70;19.52;;;;;;;17.92;78.56;93383.91;5065664;28;20039;-80
2022/08/14 01:14:23;;;;;;;36.47;19.65;;;;;;;17.82;78.49;93383.38;5065572;28;20216;-81
2022/08/14 01:16:48;;;;;;;31.17;18.23;;;;;;;17.74;78.21;93376.38;5065900;28;20064;-82
2022/08/14 01:21:58;;;;;;;39.78;18.00;;;;;;;17.69;78.98;93374.03;5065772;28;20058;-81
2022/08/14 01:24:24;;;;;;;32.15;19.23;;;;;;;17.72;79.20;93375.97;5065700;28;20271;-81
2022/08/14 01:26:52;;;;;;;25.52;15.75;;;;;;;17.76;79.64;93374.09;5065861;28;20307;-82
2022/08/14 01:29:18;;;;;;;27.35;16.48;;;;;;;17.83;79.79;93376.13;5065653;28;20047;-81
2022/08/14 01:31:51;;;;;;;33.30;17.35;;;;;;;17.87;79.71;93366.16;5064352;28;20270;-81
2022/08/14 01:34:19;;;;;;;41.75;21.10;;;;;;;17.87;80.03;93366.16;5065468;28;20104;-81
2022/08/14 01:36:45;;;;;;;41.70;22.90;;;;;;;17.90;80.22;93383.50;5065178;28;20050;-81
2022/08/14 01:39:14;;;;;;;48.28;23.30;;;;;;;17.89;80.01;93376.53;5065242;28;20029;-81
2022/08/14 01:41:42;;;;;;;43.95;23.13;;;;;;;17.91;80.39;93383.13;5065034;28;20037;-81
2022/08/14 01:44:12;;;;;;;44.35;24.30;;;;;;;17.94;80.28;93381.63;5065495;28;20024;-82
2022/08/14 01:46:39;;;;;;;43.95;22.42;;;;;;;17.98;80.39;93382.41;5065471;28;20033;-82
2022/08/14 01:49:10;;;;;;;58.70;23.45;;;;;;;18.01;80.49;93365.47;5065252;28;20248;-82
2022/08/14 01:51:38;;;;;;;53.00;28.00;;;;;;;18.05;80.35;93366.28;5064014;28;20021;-81
2022/08/14 01:54:10;;;;;;;52.25;24.45;;;;;;;18.07;80.51;93368.63;5064711;28;20092;-82
2022/08/14 01:56:41;;;;;;;49.70;25.55;;;;;;;18.03;80.02;93352.41;5065010;28;20025;-81
2022/08/14 01:59:31;;;;;;;55.88;26.88;;;;;;;18.07;80.04;93358.59;5064525;28;20029;-81
2022/08/14 02:02:00;;;;;;;61.47;27.23;;;;;;;18.06;79.95;93357.06;5064755;28;20028;-81
2022/08/14 02:04:34;;;;;;;56.47;27.38;;;;;;;18.06;80.18;93367.84;5064908;28;20045;-81
2022/08/14 02:07:01;;;;;;;55.08;26.20;;;;;;;18.08;79.76;93368.25;5064851;28;20115;-81
2022/08/14 02:09:29;;;;;;;55.88;26.45;;;;;;;18.06;79.73;93367.84;5064551;28;20021;-81
2022/08/14 02:11:55;;;;;;;63.20;30.77;;;;;;;18.02;78.99;93372.44;5064846;28;20024;-80
2022/08/14 02:14:22;;;;;;;54.33;27.90;;;;;;;17.94;79.26;93360.03;5064822;28;20021;-80
2022/08/14 02:16:52;;;;;;;56.80;30.10;;;;;;;17.86;79.44;93367.28;5064514;28;20274;-82
2022/08/14 02:19:20;;;;;;;58.17;28.25;;;;;;;17.75;80.75;93369.09;5065110;28;20204;-83
2022/08/14 02:21:48;;;;;;;51.13;28.05;;;;;;;17.72;81.03;93353.63;5064335;28;20043;-81
2022/08/14 02:24:14;;;;;;;49.88;26.63;;;;;;;17.67;81.46;93357.44;5064421;28;20025;-81
2022/08/14 02:26:46;;;;;;;47.08;23.67;;;;;;;17.60;81.70;93360.81;5064567;28;20107;-81
2022/08/14 02:29:16;;;;;;;47.53;24.60;;;;;;;17.53;81.43;93354.63;5064671;28;20314;-81
2022/08/14 02:31:45;;;;;;;43.38;23.80;;;;;;;17.48;81.52;93355.69;5064532;28;20151;-81
2022/08/14 02:34:19;;;;;;;44.25;23.90;;;;;;;17.42;81.27;93355.28;5063049;28;20091;-82
2022/08/14 02:36:47;;;;;;;46.47;24.08;;;;;;;17.37;81.33;93347.50;5064112;28;20092;-82
2022/08/14 02:39:13;;;;;;;44.20;24.13;;;;;;;17.42;81.68;93344.50;5064127;28;20047;-82
2022/08/14 02:41:39;;;;;;;44.45;24.33;;;;;;;17.41;81.88;93355.63;5064529;28;20102;-81
2022/08/14 02:44:09;;;;;;;48.78;23.58;;;;;;;17.42;81.85;93357.16;5063929;28;20024;-81
2022/08/14 02:46:35;;;;;;;43.63;23.23;;;;;;;17.40;81.84;93354.88;5064019;28;20025;-82
2022/08/14 02:49:01;;;;;;;46.97;24.40;;;;;;;17.45;82.04;93362.59;5064121;28;20040;-82
2022/08/14 02:51:28;;;;;;;42.80;23.48;;;;;;;17.51;82.10;93354.19;5063851;28;20028;-82
2022/08/14 02:53:55;;;;;;;45.78;24.42;;;;;;;17.51;82.08;93362.28;5063833;28;20056;-81
2022/08/14 02:56:21;;;;;;;38.25;21.58;;;;;;;17.50;82.31;93360.72;5064186;28;20021;-81
2022/08/14 02:58:50;;;;;;;37.55;20.75;;;;;;;17.47;81.66;93358.78;5063826;28;20025;-82
2022/08/14 03:01:21;;;;;;;38.63;21.13;;;;;;;17.28;82.20;93357.81;5063844;28;20200;-82
2022/08/14 03:03:48;;;;;;;32.30;19.27;;;;;;;17.18;83.05;93361.16;5063399;28;20276;-82
2022/08/14 03:06:15;;;;;;;36.50;20.95;;;;;;;17.12;83.38;93357.22;5062517;28;20036;-81
2022/08/14 03:08:42;;;;;;;36.33;21.20;;;;;;;17.11;83.37;93361.06;5063669;28;20017;-81
2022/08/14 03:11:10;;;;;;;34.42;19.60;;;;;;;17.07;83.35;93358.31;5063650;28;20028;-81
2022/08/14 03:13:38;;;;;;;33.40;19.98;;;;;;;17.08;82.47;93359.88;5063364;28;20024;-81
2022/08/14 03:16:06;;;;;;;28.02;18.20;;;;;;;17.05;82.58;93355.97;5063409;28;20316;-81
2022/08/14 03:18:32;;;;;;;26.15;18.08;;;;;;;17.00;82.55;93352.84;5063364;28;20375;-81
2022/08/14 03:21:04;;;;;;;30.73;19.65;;;;;;;17.00;83.13;93359.00;5063372;28;20047;-82
2022/08/14 03:23:33;;;;;;;32.55;19.65;;;;;;;16.98;83.13;93361.28;5063458;28;20035;-81
2022/08/14 03:25:59;;;;;;;26.83;18.42;;;;;;;16.94;83.40;93355.06;5063390;28;20246;-81
2022/08/14 03:28:28;;;;;;;29.83;18.77;;;;;;;16.87;83.90;93359.59;5063168;28;20060;-81
2022/08/14 03:30:54;;;;;;;33.67;18.40;;;;;;;16.83;84.22;93370.28;5063413;28;20016;-82
2022/08/14 03:33:20;;;;;;;38.20;19.38;;;;;;;16.78;84.33;93367.91;5063315;28;20025;-82
2022/08/14 03:35:45;;;;;;;34.20;21.05;;;;;;;16.79;85.10;93361.38;5063230;28;20345;-82
2022/08/14 03:38:12;;;;;;;32.15;20.30;;;;;;;16.77;84.45;93374.41;5061956;28;20232;-82
2022/08/14 03:40:39;;;;;;;32.72;19.63;;;;;;;16.74;85.10;93367.09;5063073;28;20048;-82
2022/08/14 03:43:09;;;;;;;35.78;22.40;;;;;;;16.73;85.27;93365.50;5063072;28;20200;-82
2022/08/14 03:45:37;;;;;;;32.08;19.88;;;;;;;16.79;84.78;93380.22;5063224;28;20204;-82
2022/08/14 03:48:18;;;;;;;39.38;21.08;;;;;;;16.82;84.60;93376.84;5062882;28;20020;-82
2022/08/14 03:50:49;;;;;;;41.05;21.58;;;;;;;16.86;84.22;93379.59;5062897;28;20025;-82
2022/08/14 03:53:15;;;;;;;33.92;20.60;;;;;;;16.78;84.17;93384.81;5062708;28;20250;-83
2022/08/14 03:55:42;;;;;;;37.97;21.52;;;;;;;16.80;84.79;93381.78;5062791;28;20063;-84
2022/08/14 03:58:08;;;;;;;38.17;22.13;;;;;;;16.84;84.80;93371.88;5063093;28;20066;-84
2022/08/14 04:00:35;;;;;;;33.80;20.20;;;;;;;16.92;85.33;93367.34;5062979;28;20025;-84
2022/08/14 04:03:04;;;;;;;31.83;20.60;;;;;;;16.98;84.05;93374.75;5061578;28;20032;-83
2022/08/14 04:05:31;;;;;;;26.63;18.38;;;;;;;17.03;82.81;93374.41;5062869;28;20020;-83
2022/08/14 04:07:57;;;;;;;30.08;18.90;;;;;;;17.10;82.66;93387.22;5061585;28;20024;-82
2022/08/14 04:10:23;;;;;;;25.30;17.40;;;;;;;17.19;83.00;93385.00;5063033;28;20017;-83
2022/08/14 04:12:49;;;;;;;23.30;16.90;;;;;;;17.28;82.75;93387.44;5062757;28;20327;-83
2022/08/14 04:15:18;;;;;;;31.30;17.48;;;;;;;17.37;82.34;93387.16;5063468;28;20048;-82
2022/08/14 04:17:44;;;;;;;26.48;17.55;;;;;;;17.44;82.08;93385.31;5066984;28;20039;-81
2022/08/14 04:20:11;;;;;;;23.23;17.85;;;;;;;17.54;81.50;93383.84;5066761;28;20033;-80
2022/08/14 04:22:42;;;;;;;26.23;17.67;;;;;;;17.56;81.15;93381.56;5066642;28;20024;-81
2022/08/14 04:25:09;;;;;;;30.40;20.50;;;;;;;17.62;80.77;93376.63;5066709;28;20340;-82
2022/08/14 04:27:35;;;;;;;34.50;20.17;;;;;;;17.61;80.74;93386.66;5066610;28;20048;-81
2022/08/14 04:30:02;;;;;;;30.17;19.95;;;;;;;17.64;81.14;93385.91;5066595;28;20021;-81
2022/08/14 04:32:27;;;;;;;28.08;18.38;;;;;;;17.71;80.91;93379.81;5066604;28;20056;-81
2022/08/14 04:34:53;;;;;;;32.65;20.73;;;;;;;17.76;80.49;93390.25;5066678;28;20246;-81
2022/08/14 04:45:42;;;;;;;35.00;21.30;;;;;;;17.86;80.61;93377.28;5066387;28;20035;-80
2022/08/14 04:48:12;;;;;;;23.05;17.60;;;;;;;17.88;78.61;93383.88;5066546;28;20096;-80
2022/08/14 04:50:50;;;;;;;24.67;17.88;;;;;;;17.89;77.87;93379.25;5066363;28;20035;-80
2022/08/14 04:53:18;;;;;;;24.98;17.90;;;;;;;17.87;77.76;93376.13;5065025;28;20032;-80
2022/08/14 04:55:47;;;;;;;28.27;18.25;;;;;;;17.88;79.17;93377.69;5066189;28;20309;-80
2022/08/14 04:58:16;;;;;;;26.05;17.17;;;;;;;17.91;78.95;93376.94;5066223;28;20025;-80
2022/08/14 05:00:43;;;;;;;22.25;16.30;;;;;;;17.99;79.19;93375.88;5066313;28;20088;-80
2022/08/14 05:03:09;;;;;;;21.27;14.25;;;;;;;18.03;78.49;93376.66;5066076;28;20020;-80
2022/08/14 05:05:35;;;;;;;16.50;13.48;;;;;;;18.06;77.15;93369.78;5066127;28;20025;-80
2022/08/14 05:08:10;;;;;;;16.13;12.88;;;;;;;18.00;76.61;93369.34;5066106;28;20029;-80
2022/08/14 05:10:36;;;;;;;19.20;13.95;;;;;;;18.02;76.99;93369.75;5066018;28;20024;-80
2022/08/14 05:13:04;;;;;;;19.65;12.43;;;;;;;18.00;77.37;93370.09;5065703;28;20212;-80
2022/08/14 05:15:30;;;;;;;16.92;12.65;;;;;;;18.00;76.14;93362.03;5065948;28;20106;-80
2022/08/14 05:17:56;;;;;;;18.77;13.02;;;;;;;18.04;76.89;93370.91;5066160;28;20021;-80
2022/08/14 05:20:21;;;;;;;16.75;13.05;;;;;;;18.11;77.01;93370.19;5064486;28;20059;-80
2022/08/14 05:22:48;;;;;;;24.05;13.43;;;;;;;18.18;77.22;93381.06;5065882;28;20028;-80
2022/08/14 05:25:13;;;;;;;18.30;12.25;;;;;;;18.25;77.25;93381.09;5065488;28;20100;-80
2022/08/14 05:27:38;;;;;;;16.95;12.63;;;;;;;18.32;77.18;93377.72;5065455;28;20017;-80
2022/08/14 05:30:05;;;;;;;18.20;13.68;;;;;;;18.40;76.94;93375.84;5065467;28;20021;-80
2022/08/14 05:32:30;;;;;;;20.13;13.98;;;;;;;18.49;77.02;93376.28;5065655;28;20021;-80
2022/08/14 05:34:58;;;;;;;25.80;16.33;;;;;;;18.57;76.94;93385.97;5065580;28;20254;-80
2022/08/14 05:37:23;;;;;;;19.92;15.27;;;;;;;18.60;76.96;93379.84;5065481;28;20021;-80
2022/08/14 05:39:49;;;;;;;35.00;17.00;;;;;;;18.63;76.80;93379.09;5065168;28;20028;-80
2022/08/14 05:42:15;;;;;;;24.25;17.27;;;;;;;18.71;77.05;93384.53;5065392;28;20108;-80
2022/08/14 05:44:41;;;;;;;25.05;19.00;;;;;;;18.72;76.75;93378.75;5065239;28;20020;-80
2022/08/14 05:47:06;;;;;;;22.30;16.85;;;;;;;18.78;76.34;93390.75;5064815;28;20021;-82
2022/08/14 05:49:32;;;;;;;24.55;17.48;;;;;;;18.83;76.33;93389.66;5064929;28;20013;-82
2022/08/14 05:51:58;;;;;;;25.48;17.50;;;;;;;18.92;75.70;93386.63;5065210;28;20044;-82
2022/08/14 05:54:24;;;;;;;23.95;18.92;;;;;;;19.00;75.44;93380.09;5065051;28;20028;-80
2022/08/14 05:56:49;;;;;;;25.55;17.48;;;;;;;19.08;74.76;93375.53;5064816;28;20056;-80
2022/08/14 05:59:15;;;;;;;21.63;16.15;;;;;;;19.14;73.26;93376.72;5063586;28;20032;-80
2022/08/14 06:01:40;;;;;;;22.55;16.40;;;;;;;19.18;73.34;93366.69;5064742;28;20036;-79
2022/08/14 06:04:06;;;;;;;27.00;16.45;;;;;;;19.24;73.78;93378.69;5064784;28;20060;-81
2022/08/14 06:06:31;;;;;;;25.83;17.83;;;;;;;19.29;74.02;93381.00;5064700;28;20032;-81
2022/08/14 06:08:57;;;;;;;27.40;18.42;;;;;;;19.32;73.77;93391.06;5064889;28;20302;-80
2022/08/14 06:11:22;;;;;;;27.95;17.15;;;;;;;19.37;73.92;93382.59;5064685;28;20039;-80
2022/08/14 06:13:48;;;;;;;22.67;17.17;;;;;;;19.42;73.96;93389.56;5064732;28;20039;-80
2022/08/14 06:16:15;;;;;;;25.73;17.65;;;;;;;19.42;74.10;93393.03;5064382;28;20045;-80
2022/08/14 06:18:41;;;;;;;22.58;17.55;;;;;;;19.43;74.07;93389.16;5064450;28;20021;-79
2022/08/14 06:21:07;;;;;;;26.83;17.35;;;;;;;19.49;73.57;93388.81;5064407;28;20021;-80
2022/08/14 06:23:33;;;;;;;26.15;18.02;;;;;;;19.48;73.90;93388.06;5064482;28;20025;-80
2022/08/14 06:25:58;;;;;;;24.45;17.92;;;;;;;19.51;73.68;93391.91;5064562;28;20017;-80
2022/08/14 06:28:25;;;;;;;26.83;18.15;;;;;;;19.55;73.20;93388.06;5063223;28;20021;-80
2022/08/14 06:30:51;;;;;;;27.50;17.98;;;;;;;19.56;73.11;93394.22;5064549;28;20021;-81
2022/08/14 06:33:18;;;;;;;25.10;18.52;;;;;;;19.60;73.03;93395.03;5064217;28;20024;-83
2022/08/14 06:35:45;;;;;;;22.55;17.33;;;;;;;19.59;73.02;93394.25;5064122;28;20096;-82
2022/08/14 06:38:29;;;;;;;22.92;16.75;;;;;;;19.59;72.99;93396.19;5063486;28;20091;-82
2022/08/14 06:40:54;;;;;;;23.92;17.95;;;;;;;19.57;73.44;93399.25;5064259;28;20091;-84
2022/08/14 06:43:20;;;;;;;23.02;17.38;;;;;;;19.61;73.43;93402.00;5064164;28;20326;-82
2022/08/14 06:45:47;;;;;;;25.42;17.75;;;;;;;19.61;73.59;93391.19;5064113;28;20234;-80
2022/08/14 06:48:14;;;;;;;22.30;17.08;;;;;;;19.60;73.68;93397.72;5063725;28;20062;-81
2022/08/14 06:50:40;;;;;;;33.33;17.45;;;;;;;19.57;73.88;93395.81;5063871;28;20032;-81
2022/08/14 06:53:06;;;;;;;23.98;18.10;;;;;;;19.56;73.26;93384.22;5063881;28;20242;-80
2022/08/14 06:55:31;;;;;;;27.38;17.90;;;;;;;19.57;73.62;93401.97;5063698;28;20043;-82
2022/08/14 06:57:57;;;;;;;26.42;17.83;;;;;;;19.57;74.04;93401.97;5062587;28;20020;-83
2022/08/14 07:00:27;;;;;;;26.45;19.75;;;;;;;19.58;73.71;93395.44;5063756;28;20017;-85
2022/08/14 07:05:55;;;;;;;28.02;18.92;;;;;;;19.56;73.78;93400.44;5063558;28;20342;-82
2022/08/14 07:08:27;;;;;;;28.77;18.65;;;;;;;19.53;73.89;93406.59;5063430;28;20060;-82
2022/08/14 07:10:55;;;;;;;30.58;20.02;;;;;;;19.54;74.18;93404.66;5064853;28;20201;-81
2022/08/14 07:13:23;;;;;;;28.08;18.38;;;;;;;19.52;74.22;93398.84;5063427;28;20036;-82
2022/08/14 07:15:51;;;;;;;24.98;18.27;;;;;;;19.52;74.50;93405.06;5063073;28;20101;-81
2022/08/14 07:18:24;;;;;;;28.50;18.40;;;;;;;19.57;74.67;93406.59;5063135;28;20035;-81
2022/08/14 07:20:51;;;;;;;27.58;17.00;;;;;;;19.60;74.31;93400.44;5063206;28;20242;-81
2022/08/14 07:23:17;;;;;;;23.83;15.57;;;;;;;19.63;73.80;93400.44;5063257;28;20033;-83
2022/08/14 07:25:44;;;;;;;9.73;7.53;;;;;;;19.59;69.78;93407.00;5063100;28;20248;-82
2022/08/14 07:28:31;;;;;;;6.40;5.32;;;;;;;19.51;68.49;93397.31;5063277;28;20020;-83
2022/08/14 07:30:58;;;;;;;6.57;5.05;;;;;;;19.49;68.01;93405.03;5063347;28;20335;-83
2022/08/14 07:33:25;;;;;;;9.50;5.20;;;;;;;19.47;67.72;93410.81;5063102;28;20321;-81
2022/08/14 07:35:52;;;;;;;5.45;4.40;;;;;;;19.50;67.12;93412.78;5062924;28;20037;-82
2022/08/14 07:38:19;;;;;;;6.15;4.03;;;;;;;19.44;65.89;93415.06;5062817;28;20200;-81
2022/08/14 07:40:45;;;;;;;6.90;4.78;;;;;;;19.41;66.05;93413.09;5062940;28;20268;-80
2022/08/14 07:43:12;;;;;;;6.85;5.35;;;;;;;19.44;66.74;93409.66;5062810;28;20024;-80
2022/08/14 07:45:38;;;;;;;6.35;4.75;;;;;;;19.57;67.17;93417.41;5062954;28;20035;-80
2022/08/14 07:48:05;;;;;;;5.97;4.90;;;;;;;19.65;67.15;93411.66;5062885;28;20226;-80
2022/08/14 07:50:31;;;;;;;6.78;4.95;;;;;;;19.71;66.28;93409.38;5062187;28;20365;-80
2022/08/14 07:52:58;;;;;;;6.15;4.72;;;;;;;19.75;66.20;93407.47;5062855;28;20055;-81
2022/08/14 07:55:24;;;;;;;9.38;3.95;;;;;;;19.70;67.22;93405.13;5062602;28;20032;-82
2022/08/14 07:57:50;;;;;;;6.38;4.68;;;;;;;19.65;66.77;93408.19;5062746;28;20028;-81
2022/08/14 08:00:18;;;;;;;6.05;4.53;;;;;;;19.66;68.23;93417.81;5062715;28;20024;-81
2022/08/14 08:02:46;;;;;;;5.07;4.07;;;;;;;19.69;67.79;93414.38;5062545;28;20025;-81
2022/08/14 08:05:13;;;;;;;9.75;5.40;;;;;;;19.71;67.00;93414.03;5062709;28;20331;-80
2022/08/14 08:07:40;;;;;;;9.07;5.38;;;;;;;19.61;66.59;93416.28;5062720;28;20016;-83
2022/08/14 08:10:30;;;;;;;7.38;4.70;;;;;;;19.53;66.72;93412.00;5062652;28;20067;-82
2022/08/14 08:13:11;;;;;;;6.43;4.53;;;;;;;19.48;66.58;93415.06;5062820;28;20092;-82
2022/08/14 08:15:42;;;;;;;9.85;5.68;;;;;;;19.48;66.83;93406.19;5062626;28;20072;-82
2022/08/14 08:18:11;;;;;;;5.80;4.90;;;;;;;19.40;67.84;93408.88;5062765;28;20047;-82
2022/08/14 08:20:41;;;;;;;7.68;5.35;;;;;;;19.32;69.03;93412.69;5062404;28;20041;-83
2022/08/14 08:23:07;;;;;;;8.07;5.20;;;;;;;19.26;69.19;93408.81;5062355;28;20017;-84
2022/08/14 08:25:34;;;;;;;7.15;5.50;;;;;;;19.26;70.13;93410.72;5062508;28;20043;-84
2022/08/14 08:28:07;;;;;;;11.75;5.18;;;;;;;19.28;69.77;93403.78;5062329;28;20024;-83
2022/08/14 08:30:34;;;;;;;8.55;4.80;;;;;;;19.23;69.17;93410.34;5062466;28;20021;-84
2022/08/14 08:33:01;;;;;;;6.28;4.35;;;;;;;19.26;69.55;93408.03;5062490;28;20096;-84
2022/08/14 08:35:29;;;;;;;6.47;4.78;;;;;;;19.31;71.21;93408.41;5062573;28;20020;-84
2022/08/14 08:38:02;;;;;;;7.85;5.57;;;;;;;19.35;69.38;93411.91;5062451;28;20063;-84
2022/08/14 08:40:35;;;;;;;6.82;4.88;;;;;;;19.39;69.44;93406.53;5062383;28;20219;-84
2022/08/14 08:43:05;;;;;;;10.65;6.32;;;;;;;19.35;69.63;93405.75;5062386;28;20017;-84
2022/08/14 08:45:35;;;;;;;7.28;5.30;;;;;;;19.39;69.08;93415.41;5062210;28;20025;-83
2022/08/14 08:48:02;;;;;;;7.50;5.68;;;;;;;19.36;68.55;93401.91;5061092;28;20028;-83
2022/08/14 08:50:37;;;;;;;7.05;5.60;;;;;;;19.47;69.09;93408.13;5061100;28;20023;-84
2022/08/14 08:53:08;;;;;;;6.55;5.55;;;;;;;19.60;69.16;93405.84;5061008;28;20341;-81
2022/08/14 08:55:44;;;;;;;5.60;4.27;;;;;;;19.74;67.71;93416.75;5062309;28;20020;-81
2022/08/14 08:58:20;;;;;;;7.28;5.13;;;;;;;19.92;67.28;93403.25;5062269;28;20017;-81
2022/08/14 09:00:51;;;;;;;9.30;5.40;;;;;;;20.13;67.56;93405.25;5062205;28;20033;-83
2022/08/14 09:03:20;;;;;;;11.90;5.70;;;;;;;20.26;68.85;93402.16;5065848;28;20021;-84
2022/08/14 09:05:54;;;;;;;6.60;4.85;;;;;;;20.35;67.87;93389.81;5066024;28;20311;-83
2022/08/14 09:08:25;;;;;;;7.65;5.00;;;;;;;20.54;65.99;93385.16;5065666;28;20053;-83
2022/08/14 09:10:52;;;;;;;6.55;4.75;;;;;;;20.75;64.74;93385.16;5063486;28;20322;-83
2022/08/14 09:13:18;;;;;;;7.35;4.85;;;;;;;20.99;63.73;93382.81;5064626;28;20027;-82
2022/08/14 09:15:46;;;;;;;5.90;4.82;;;;;;;21.08;63.34;93377.75;5063425;28;20065;-82
2022/08/14 09:18:14;;;;;;;8.75;5.15;;;;;;;21.15;62.70;93380.44;5063683;28;20028;-83
2022/08/14 09:20:42;;;;;;;8.65;5.53;;;;;;;21.24;61.34;93374.59;5063620;28;20028;-84
2022/08/14 09:23:09;;;;;;;10.32;5.82;;;;;;;21.24;61.33;93378.09;5062316;28;20021;-83
2022/08/14 09:25:36;;;;;;;7.65;5.88;;;;;;;21.29;61.49;93373.41;5064263;28;20025;-84
2022/08/14 09:28:03;;;;;;;11.38;5.63;;;;;;;21.37;62.23;93373.03;5096777;28;20378;-84
2022/08/14 09:30:31;;;;;;;9.43;6.78;;;;;;;21.60;63.39;93369.84;5064293;28;20021;-83
2022/08/14 09:33:27;;;;;;;10.85;7.07;;;;;;;21.90;62.14;93375.88;5065632;28;20024;-84
2022/08/14 09:36:04;;;;;;;9.30;7.65;;;;;;;22.04;60.60;93383.94;5065058;28;20029;-83
2022/08/14 09:38:43;;;;;;;8.32;6.97;;;;;;;21.87;59.46;93382.88;5064221;28;20024;-84
2022/08/14 09:41:27;;;;;;;10.30;6.00;;;;;;;21.76;60.63;93380.22;5065204;28;20173;-85
2022/08/14 09:44:01;;;;;;;10.98;7.60;;;;;;;21.57;60.25;93384.19;5065321;28;20039;-85
2022/08/14 09:46:27;;;;;;;9.05;7.00;;;;;;;21.48;61.06;93375.72;5065317;28;20231;-86
2022/08/14 09:49:06;;;;;;;9.43;6.50;;;;;;;21.58;60.79;93374.88;5065116;28;20048;-85
2022/08/14 09:51:35;;;;;;;7.65;5.88;;;;;;;21.69;60.06;93379.50;5065169;28;20266;-83
2022/08/14 09:54:04;;;;;;;7.88;6.35;;;;;;;21.55;59.66;93374.91;5064842;28;20036;-84
2022/08/14 09:56:45;;;;;;;8.57;6.65;;;;;;;21.33;59.55;93374.97;5065453;28;20029;-87
2022/08/14 09:59:13;;;;;;;8.07;6.75;;;;;;;21.13;60.57;93365.75;5064916;28;20041;-88
2022/08/14 10:01:40;;;;;;;8.02;6.78;;;;;;;21.00;61.08;93368.88;5065319;28;20032;-89
2022/08/14 10:04:18;;;;;;;8.48;6.30;;;;;;;21.03;61.72;93384.34;5065146;28;20025;-84
2022/08/14 10:06:44;;;;;;;8.68;6.70;;;;;;;21.02;61.55;93377.38;5065010;28;20059;-79
2022/08/14 10:09:10;;;;;;;11.48;7.03;;;;;;;20.94;62.15;93381.25;5063568;28;20009;-78
2022/08/14 10:11:37;;;;;;;9.68;7.28;;;;;;;20.88;61.73;93374.69;5064719;28;20246;-81
2022/08/14 10:14:15;;;;;;;8.15;6.22;;;;;;;20.81;61.60;93374.72;5063569;28;20021;-81
2022/08/14 10:16:43;;;;;;;8.10;6.47;;;;;;;20.71;61.97;93378.22;5064566;28;20044;-82
2022/08/14 10:19:12;;;;;;;8.07;6.50;;;;;;;20.66;63.08;93376.69;5063119;28;20024;-81
2022/08/14 10:21:40;;;;;;;9.07;6.75;;;;;;;20.59;62.60;93388.25;5064654;28;20021;-81
2022/08/14 10:24:09;;;;;;;8.52;6.38;;;;;;;20.54;62.42;93380.53;5064620;28;20059;-80
2022/08/14 10:26:34;;;;;;;10.52;7.68;;;;;;;20.53;62.86;93373.53;5064375;28;20033;-83
2022/08/14 10:29:11;;;;;;;8.75;6.72;;;;;;;20.49;63.74;93380.13;5064398;28;20016;-82
2022/08/14 10:31:37;;;;;;;10.10;5.80;;;;;;;20.52;63.88;93369.31;5064033;28;20056;-82
2022/08/14 10:34:07;;;;;;;6.35;5.20;;;;;;;20.46;64.03;93378.22;5063900;28;20307;-82
2022/08/14 10:36:35;;;;;;;7.15;5.57;;;;;;;20.51;64.69;93372.38;5064257;28;20378;-82
2022/08/14 10:39:06;;;;;;;9.75;6.57;;;;;;;20.51;65.25;93375.88;5064090;28;20033;-80
2022/08/14 10:41:40;;;;;;;12.88;6.53;;;;;;;20.44;64.44;93362.34;5064082;28;20139;-82
2022/08/14 10:44:20;;;;;;;11.75;5.93;;;;;;;20.45;64.86;93355.75;5064078;28;20032;-81
2022/08/14 10:46:57;;;;;;;14.55;5.60;;;;;;;20.39;66.54;93349.19;5063997;28;20016;-81
2022/08/14 10:49:25;;;;;;;11.52;6.05;;;;;;;20.37;68.32;93352.31;5063921;28;20309;-80
2022/08/14 10:52:05;;;;;;;8.70;5.88;;;;;;;20.35;66.92;93340.31;5063732;28;20102;-82
2022/08/14 10:54:38;;;;;;;6.20;4.90;;;;;;;20.28;66.90;93335.66;5063932;28;20232;-80
2022/08/14 10:57:17;;;;;;;11.65;4.70;;;;;;;20.29;67.90;93339.13;5063981;28;20044;-80
2022/08/14 10:59:48;;;;;;;11.43;5.07;;;;;;;20.33;67.93;93339.91;5063801;28;20275;-80
2022/08/14 11:02:30;;;;;;;6.33;5.10;;;;;;;20.42;69.23;93332.97;5063675;28;20341;-80
2022/08/14 11:05:12;;;;;;;7.47;5.17;;;;;;;20.59;68.22;93328.69;5063491;28;20271;-81
2022/08/14 11:07:52;;;;;;;7.70;5.47;;;;;;;20.75;69.57;93338.34;5063490;28;20368;-80
2022/08/14 11:10:19;;;;;;;7.00;5.35;;;;;;;20.79;66.93;93325.59;5063632;28;20303;-81
2022/08/14 11:12:57;;;;;;;13.30;4.63;;;;;;;20.95;66.00;93325.94;5063290;28;20215;-80
2022/08/14 11:15:26;;;;;;;5.70;4.40;;;;;;;21.10;63.63;93320.47;5063136;28;20112;-80
2022/08/14 11:17:53;;;;;;;6.43;3.95;;;;;;;21.28;63.36;93317.69;5063253;28;20021;-80
2022/08/14 11:20:21;;;;;;;5.30;4.15;;;;;;;21.41;62.75;93311.44;5063349;28;20021;-80
2022/08/14 11:26:09;;;;;;;5.55;4.05;;;;;;;21.70;61.42;93310.53;5060560;28;20154;-80
2022/08/14 11:28:44;;;;;;;8.95;3.75;;;;;;;21.84;61.88;93316.63;5060961;28;20021;-78
2022/08/14 11:31:12;;;;;;;6.13;4.22;;;;;;;21.96;61.47;93315.41;5061243;28;20271;-81
2022/08/14 11:33:39;;;;;;;5.65;3.90;;;;;;;22.08;59.89;93308.69;5061331;28;20334;-81
2022/08/14 11:36:08;;;;;;;5.88;4.40;;;;;;;22.12;59.26;93316.81;5061182;28;20024;-80
2022/08/14 11:38:44;;;;;;;7.32;4.18;;;;;;;22.10;59.25;93328.06;5062642;28;20222;-80
2022/08/14 11:41:12;;;;;;;4.97;3.72;;;;;;;22.11;58.31;93321.47;5062964;28;20017;-81
2022/08/14 11:43:47;;;;;;;6.03;3.88;;;;;;;22.22;59.58;93319.44;5062851;28;20258;-80
2022/08/14 11:46:15;;;;;;;7.45;3.70;;;;;;;22.38;60.09;93329.06;5062904;28;20017;-80